sensor_id;sensor_type;location;lat;lon;timestamp;P1;durP1;ratioP1;P2;durP2;ratioP2
11510;SDS011;5812;48.864;9.190;2022-11-11T00:00:35;8.20;;;8.20;;
11510;SDS011;5812;48.864;9.190;2022-11-11T00:03:01;8.97;;;8.97;;
11510;SDS011;5812;48.864;9.190;2022-11-11T00:05:27;9.23;;;9.23;;
11510;SDS011;5812;48.864;9.190;2022-11-11T00:07:53;8.70;;;8.70;;
11510;SDS011;5812;48.864;9.190;2022-11-11T00:10:23;8.10;;;8.10;;
11510;SDS011;5812;48.864;9.190;2022-11-11T00:12:53;8.57;;;8.57;;
11510;SDS011;5812;48.864;9.190;2022-11-11T00:15:22;7.90;;;7.90;;
11510;SDS011;5812;48.864;9.190;2022-11-11T00:17:47;8.60;;;8.50;;
11510;SDS011;5812;48.864;9.190;2022-11-11T00:20:31;7.30;;;7.30;;
11510;SDS011;5812;48.864;9.190;2022-11-11T00:23:22;6.80;;;6.80;;
11510;SDS011;5812;48.864;9.190;2022-11-11T00:26:11;6.53;;;6.53;;
11510;SDS011;5812;48.864;9.190;2022-11-11T00:28:38;6.10;;;6.10;;
11510;SDS011;5812;48.864;9.190;2022-11-11T00:31:05;6.40;;;6.40;;
11510;SDS011;5812;48.864;9.190;2022-11-11T00:33:35;6.07;;;6.07;;
11510;SDS011;5812;48.864;9.190;2022-11-11T00:36:01;6.33;;;6.33;;
11510;SDS011;5812;48.864;9.190;2022-11-11T00:38:26;5.43;;;5.43;;
11510;SDS011;5812;48.864;9.190;2022-11-11T00:41:11;5.93;;;5.93;;
11510;SDS011;5812;48.864;9.190;2022-11-11T00:43:39;6.00;;;6.00;;
11510;SDS011;5812;48.864;9.190;2022-11-11T00:46:05;6.47;;;6.47;;
11510;SDS011;5812;48.864;9.190;2022-11-11T00:48:49;7.97;;;7.97;;
11510;SDS011;5812;48.864;9.190;2022-11-11T00:51:33;7.63;;;7.63;;
11510;SDS011;5812;48.864;9.190;2022-11-11T00:53:59;7.50;;;7.50;;
11510;SDS011;5812;48.864;9.190;2022-11-11T00:56:24;8.83;;;8.83;;
11510;SDS011;5812;48.864;9.190;2022-11-11T00:58:50;8.20;;;8.20;;
11510;SDS011;5812;48.864;9.190;2022-11-11T01:01:16;7.93;;;7.93;;
11510;SDS011;5812;48.864;9.190;2022-11-11T01:03:42;8.43;;;8.43;;
11510;SDS011;5812;48.864;9.190;2022-11-11T01:06:08;8.33;;;8.33;;
11510;SDS011;5812;48.864;9.190;2022-11-11T01:08:36;7.20;;;7.20;;
11510;SDS011;5812;48.864;9.190;2022-11-11T01:11:01;8.03;;;7.97;;
11510;SDS011;5812;48.864;9.190;2022-11-11T01:13:28;8.80;;;8.80;;
11510;SDS011;5812;48.864;9.190;2022-11-11T01:15:59;8.73;;;8.73;;
11510;SDS011;5812;48.864;9.190;2022-11-11T01:18:36;8.13;;;8.13;;
11510;SDS011;5812;48.864;9.190;2022-11-11T01:21:03;8.57;;;8.57;;
11510;SDS011;5812;48.864;9.190;2022-11-11T01:23:30;8.80;;;8.80;;
11510;SDS011;5812;48.864;9.190;2022-11-11T01:26:04;8.27;;;8.27;;
11510;SDS011;5812;48.864;9.190;2022-11-11T01:28:38;8.60;;;8.60;;
11510;SDS011;5812;48.864;9.190;2022-11-11T01:31:05;8.60;;;8.60;;
11510;SDS011;5812;48.864;9.190;2022-11-11T01:33:32;8.27;;;8.27;;
11510;SDS011;5812;48.864;9.190;2022-11-11T01:36:05;8.87;;;8.87;;
11510;SDS011;5812;48.864;9.190;2022-11-11T01:38:36;9.40;;;9.40;;
11510;SDS011;5812;48.864;9.190;2022-11-11T01:41:04;8.60;;;8.60;;
11510;SDS011;5812;48.864;9.190;2022-11-11T01:43:49;9.23;;;9.23;;
11510;SDS011;5812;48.864;9.190;2022-11-11T01:46:29;9.73;;;9.73;;
11510;SDS011;5812;48.864;9.190;2022-11-11T01:48:58;9.20;;;9.20;;
11510;SDS011;5812;48.864;9.190;2022-11-11T01:54:27;10.10;;;10.03;;
11510;SDS011;5812;48.864;9.190;2022-11-11T01:57:18;10.07;;;10.07;;
11510;SDS011;5812;48.864;9.190;2022-11-11T01:59:51;10.00;;;10.00;;
11510;SDS011;5812;48.864;9.190;2022-11-11T02:02:25;10.07;;;10.07;;
11510;SDS011;5812;48.864;9.190;2022-11-11T02:05:03;10.17;;;10.17;;
11510;SDS011;5812;48.864;9.190;2022-11-11T02:07:48;10.33;;;10.33;;
11510;SDS011;5812;48.864;9.190;2022-11-11T02:10:16;9.40;;;9.40;;
11510;SDS011;5812;48.864;9.190;2022-11-11T02:12:45;9.73;;;9.73;;
11510;SDS011;5812;48.864;9.190;2022-11-11T02:15:30;9.20;;;9.20;;
11510;SDS011;5812;48.864;9.190;2022-11-11T02:17:55;8.93;;;8.93;;
11510;SDS011;5812;48.864;9.190;2022-11-11T02:20:24;9.20;;;9.20;;
11510;SDS011;5812;48.864;9.190;2022-11-11T02:22:54;9.63;;;9.63;;
11510;SDS011;5812;48.864;9.190;2022-11-11T02:25:25;9.23;;;9.23;;
11510;SDS011;5812;48.864;9.190;2022-11-11T02:27:56;8.50;;;8.50;;
11510;SDS011;5812;48.864;9.190;2022-11-11T02:30:23;8.80;;;8.80;;
11510;SDS011;5812;48.864;9.190;2022-11-11T02:32:50;8.70;;;8.70;;
11510;SDS011;5812;48.864;9.190;2022-11-11T02:35:18;9.20;;;9.20;;
11510;SDS011;5812;48.864;9.190;2022-11-11T02:37:46;8.10;;;8.10;;
11510;SDS011;5812;48.864;9.190;2022-11-11T02:40:16;9.03;;;9.03;;
11510;SDS011;5812;48.864;9.190;2022-11-11T02:42:55;8.87;;;8.87;;
11510;SDS011;5812;48.864;9.190;2022-11-11T02:45:20;8.73;;;8.73;;
11510;SDS011;5812;48.864;9.190;2022-11-11T02:47:46;10.13;;;10.03;;
11510;SDS011;5812;48.864;9.190;2022-11-11T02:50:12;8.77;;;8.77;;
11510;SDS011;5812;48.864;9.190;2022-11-11T02:52:37;8.87;;;8.87;;
11510;SDS011;5812;48.864;9.190;2022-11-11T02:55:03;9.00;;;9.00;;
11510;SDS011;5812;48.864;9.190;2022-11-11T02:57:30;8.73;;;8.73;;
11510;SDS011;5812;48.864;9.190;2022-11-11T02:59:57;8.67;;;8.67;;
11510;SDS011;5812;48.864;9.190;2022-11-11T03:02:24;9.00;;;9.00;;
11510;SDS011;5812;48.864;9.190;2022-11-11T03:04:51;8.83;;;8.83;;
11510;SDS011;5812;48.864;9.190;2022-11-11T03:07:18;8.80;;;8.80;;
11510;SDS011;5812;48.864;9.190;2022-11-11T03:09:44;8.37;;;8.37;;
11510;SDS011;5812;48.864;9.190;2022-11-11T03:12:09;9.27;;;9.27;;
11510;SDS011;5812;48.864;9.190;2022-11-11T03:14:35;8.37;;;8.37;;
11510;SDS011;5812;48.864;9.190;2022-11-11T03:17:00;8.27;;;8.27;;
11510;SDS011;5812;48.864;9.190;2022-11-11T03:19:44;9.43;;;9.43;;
11510;SDS011;5812;48.864;9.190;2022-11-11T03:22:10;8.87;;;8.87;;
11510;SDS011;5812;48.864;9.190;2022-11-11T03:24:36;8.43;;;8.43;;
11510;SDS011;5812;48.864;9.190;2022-11-11T03:27:20;9.37;;;9.37;;
11510;SDS011;5812;48.864;9.190;2022-11-11T03:29:45;9.53;;;9.53;;
11510;SDS011;5812;48.864;9.190;2022-11-11T03:32:11;10.83;;;10.77;;
11510;SDS011;5812;48.864;9.190;2022-11-11T03:34:37;10.40;;;10.40;;
11510;SDS011;5812;48.864;9.190;2022-11-11T03:37:03;11.17;;;11.17;;
11510;SDS011;5812;48.864;9.190;2022-11-11T03:39:49;10.07;;;10.07;;
11510;SDS011;5812;48.864;9.190;2022-11-11T03:42:15;11.80;;;11.77;;
11510;SDS011;5812;48.864;9.190;2022-11-11T03:44:41;12.93;;;12.93;;
11510;SDS011;5812;48.864;9.190;2022-11-11T03:47:06;12.63;;;12.53;;
11510;SDS011;5812;48.864;9.190;2022-11-11T03:49:32;12.67;;;12.57;;
11510;SDS011;5812;48.864;9.190;2022-11-11T03:51:57;12.40;;;12.40;;
11510;SDS011;5812;48.864;9.190;2022-11-11T03:54:23;13.83;;;13.73;;
11510;SDS011;5812;48.864;9.190;2022-11-11T03:56:48;14.33;;;14.23;;
11510;SDS011;5812;48.864;9.190;2022-11-11T03:59:14;13.73;;;13.73;;
11510;SDS011;5812;48.864;9.190;2022-11-11T04:01:40;13.73;;;13.63;;
11510;SDS011;5812;48.864;9.190;2022-11-11T04:04:24;13.83;;;13.73;;
11510;SDS011;5812;48.864;9.190;2022-11-11T04:07:08;12.43;;;12.43;;
11510;SDS011;5812;48.864;9.190;2022-11-11T04:09:52;12.00;;;12.00;;
11510;SDS011;5812;48.864;9.190;2022-11-11T04:12:37;12.63;;;12.53;;
11510;SDS011;5812;48.864;9.190;2022-11-11T04:15:23;11.70;;;11.70;;
11510;SDS011;5812;48.864;9.190;2022-11-11T04:18:07;11.13;;;11.13;;
11510;SDS011;5812;48.864;9.190;2022-11-11T04:20:33;11.00;;;10.97;;
11510;SDS011;5812;48.864;9.190;2022-11-11T04:23:17;12.20;;;12.10;;
11510;SDS011;5812;48.864;9.190;2022-11-11T04:25:43;11.30;;;11.20;;
11510;SDS011;5812;48.864;9.190;2022-11-11T04:28:14;11.47;;;11.47;;
11510;SDS011;5812;48.864;9.190;2022-11-11T04:30:58;10.90;;;10.90;;
11510;SDS011;5812;48.864;9.190;2022-11-11T04:33:24;10.10;;;10.10;;
11510;SDS011;5812;48.864;9.190;2022-11-11T04:35:50;11.10;;;11.10;;
11510;SDS011;5812;48.864;9.190;2022-11-11T04:38:16;10.70;;;10.70;;
11510;SDS011;5812;48.864;9.190;2022-11-11T04:41:00;10.23;;;10.23;;
11510;SDS011;5812;48.864;9.190;2022-11-11T04:43:29;9.00;;;9.00;;
11510;SDS011;5812;48.864;9.190;2022-11-11T04:45:58;9.10;;;9.10;;
11510;SDS011;5812;48.864;9.190;2022-11-11T04:48:24;9.47;;;9.47;;
11510;SDS011;5812;48.864;9.190;2022-11-11T04:50:50;8.70;;;8.70;;
11510;SDS011;5812;48.864;9.190;2022-11-11T04:53:16;9.10;;;9.10;;
11510;SDS011;5812;48.864;9.190;2022-11-11T04:55:43;9.87;;;9.87;;
11510;SDS011;5812;48.864;9.190;2022-11-11T04:58:31;9.30;;;9.30;;
11510;SDS011;5812;48.864;9.190;2022-11-11T05:00:58;10.03;;;9.97;;
11510;SDS011;5812;48.864;9.190;2022-11-11T05:03:24;8.67;;;8.67;;
11510;SDS011;5812;48.864;9.190;2022-11-11T05:05:50;8.73;;;8.73;;
11510;SDS011;5812;48.864;9.190;2022-11-11T05:08:43;8.67;;;8.67;;
11510;SDS011;5812;48.864;9.190;2022-11-11T05:11:29;9.33;;;9.33;;
11510;SDS011;5812;48.864;9.190;2022-11-11T05:13:57;8.70;;;8.70;;
11510;SDS011;5812;48.864;9.190;2022-11-11T05:16:48;8.83;;;8.83;;
11510;SDS011;5812;48.864;9.190;2022-11-11T05:19:41;8.03;;;8.03;;
11510;SDS011;5812;48.864;9.190;2022-11-11T05:22:30;7.80;;;7.80;;
11510;SDS011;5812;48.864;9.190;2022-11-11T05:24:58;7.97;;;7.97;;
11510;SDS011;5812;48.864;9.190;2022-11-11T05:27:43;7.93;;;7.93;;
11510;SDS011;5812;48.864;9.190;2022-11-11T05:30:09;8.57;;;8.57;;
11510;SDS011;5812;48.864;9.190;2022-11-11T05:32:37;8.80;;;8.80;;
11510;SDS011;5812;48.864;9.190;2022-11-11T05:35:03;8.33;;;8.33;;
11510;SDS011;5812;48.864;9.190;2022-11-11T05:37:30;9.53;;;9.53;;
11510;SDS011;5812;48.864;9.190;2022-11-11T05:39:55;9.03;;;9.03;;
11510;SDS011;5812;48.864;9.190;2022-11-11T05:42:22;8.17;;;8.17;;
11510;SDS011;5812;48.864;9.190;2022-11-11T05:44:48;9.80;;;9.80;;
11510;SDS011;5812;48.864;9.190;2022-11-11T05:47:14;8.77;;;8.77;;
11510;SDS011;5812;48.864;9.190;2022-11-11T05:49:39;10.13;;;10.13;;
11510;SDS011;5812;48.864;9.190;2022-11-11T05:52:05;8.67;;;8.67;;
11510;SDS011;5812;48.864;9.190;2022-11-11T05:54:33;9.33;;;9.33;;
11510;SDS011;5812;48.864;9.190;2022-11-11T05:56:58;8.90;;;8.90;;
11510;SDS011;5812;48.864;9.190;2022-11-11T05:59:24;8.47;;;8.47;;
11510;SDS011;5812;48.864;9.190;2022-11-11T06:01:50;8.63;;;8.63;;
11510;SDS011;5812;48.864;9.190;2022-11-11T06:04:16;8.67;;;8.67;;
11510;SDS011;5812;48.864;9.190;2022-11-11T06:06:41;8.03;;;8.03;;
11510;SDS011;5812;48.864;9.190;2022-11-11T06:09:07;7.97;;;7.97;;
11510;SDS011;5812;48.864;9.190;2022-11-11T06:11:33;9.07;;;9.07;;
11510;SDS011;5812;48.864;9.190;2022-11-11T06:13:58;7.90;;;7.90;;
11510;SDS011;5812;48.864;9.190;2022-11-11T06:16:24;7.83;;;7.83;;
11510;SDS011;5812;48.864;9.190;2022-11-11T06:18:50;7.93;;;7.93;;
11510;SDS011;5812;48.864;9.190;2022-11-11T06:21:15;8.33;;;8.33;;
11510;SDS011;5812;48.864;9.190;2022-11-11T06:23:41;7.90;;;7.90;;
11510;SDS011;5812;48.864;9.190;2022-11-11T06:26:08;7.93;;;7.93;;
11510;SDS011;5812;48.864;9.190;2022-11-11T06:28:48;7.37;;;7.37;;
11510;SDS011;5812;48.864;9.190;2022-11-11T06:31:25;7.27;;;7.27;;
11510;SDS011;5812;48.864;9.190;2022-11-11T06:33:51;7.43;;;7.43;;
11510;SDS011;5812;48.864;9.190;2022-11-11T06:36:19;6.97;;;6.97;;
11510;SDS011;5812;48.864;9.190;2022-11-11T06:38:45;7.10;;;7.10;;
11510;SDS011;5812;48.864;9.190;2022-11-11T06:41:11;8.13;;;8.13;;
11510;SDS011;5812;48.864;9.190;2022-11-11T06:43:43;6.87;;;6.87;;
11510;SDS011;5812;48.864;9.190;2022-11-11T06:46:14;7.37;;;7.37;;
11510;SDS011;5812;48.864;9.190;2022-11-11T06:48:44;7.70;;;7.70;;
11510;SDS011;5812;48.864;9.190;2022-11-11T06:51:10;8.43;;;8.43;;
11510;SDS011;5812;48.864;9.190;2022-11-11T06:53:37;8.47;;;8.47;;
11510;SDS011;5812;48.864;9.190;2022-11-11T06:56:03;7.73;;;7.73;;
11510;SDS011;5812;48.864;9.190;2022-11-11T06:58:29;7.37;;;7.37;;
11510;SDS011;5812;48.864;9.190;2022-11-11T07:00:55;8.77;;;8.77;;
11510;SDS011;5812;48.864;9.190;2022-11-11T07:03:20;7.83;;;7.83;;
11510;SDS011;5812;48.864;9.190;2022-11-11T07:05:46;7.60;;;7.60;;
11510;SDS011;5812;48.864;9.190;2022-11-11T07:08:15;8.50;;;8.50;;
11510;SDS011;5812;48.864;9.190;2022-11-11T07:10:43;7.90;;;7.90;;
11510;SDS011;5812;48.864;9.190;2022-11-11T07:13:10;8.57;;;8.57;;
11510;SDS011;5812;48.864;9.190;2022-11-11T07:15:36;9.10;;;9.10;;
11510;SDS011;5812;48.864;9.190;2022-11-11T07:18:02;8.77;;;8.77;;
11510;SDS011;5812;48.864;9.190;2022-11-11T07:20:28;9.03;;;9.03;;
11510;SDS011;5812;48.864;9.190;2022-11-11T07:22:54;8.60;;;8.60;;
11510;SDS011;5812;48.864;9.190;2022-11-11T07:25:20;9.03;;;9.03;;
11510;SDS011;5812;48.864;9.190;2022-11-11T07:27:46;8.73;;;8.73;;
11510;SDS011;5812;48.864;9.190;2022-11-11T07:30:12;9.30;;;9.30;;
11510;SDS011;5812;48.864;9.190;2022-11-11T07:32:44;9.57;;;9.57;;
11510;SDS011;5812;48.864;9.190;2022-11-11T07:35:13;9.67;;;9.67;;
11510;SDS011;5812;48.864;9.190;2022-11-11T07:37:40;9.60;;;9.60;;
11510;SDS011;5812;48.864;9.190;2022-11-11T07:40:06;10.30;;;10.30;;
11510;SDS011;5812;48.864;9.190;2022-11-11T07:42:39;10.13;;;10.13;;
11510;SDS011;5812;48.864;9.190;2022-11-11T07:45:06;9.07;;;9.07;;
11510;SDS011;5812;48.864;9.190;2022-11-11T07:47:33;9.50;;;9.50;;
11510;SDS011;5812;48.864;9.190;2022-11-11T07:49:59;8.87;;;8.87;;
11510;SDS011;5812;48.864;9.190;2022-11-11T07:52:26;8.43;;;8.43;;
11510;SDS011;5812;48.864;9.190;2022-11-11T07:54:52;7.83;;;7.83;;
11510;SDS011;5812;48.864;9.190;2022-11-11T07:57:17;9.33;;;9.33;;
11510;SDS011;5812;48.864;9.190;2022-11-11T07:59:43;8.60;;;8.60;;
11510;SDS011;5812;48.864;9.190;2022-11-11T08:02:12;7.83;;;7.83;;
11510;SDS011;5812;48.864;9.190;2022-11-11T08:04:38;8.20;;;8.20;;
11510;SDS011;5812;48.864;9.190;2022-11-11T08:07:04;8.30;;;8.30;;
11510;SDS011;5812;48.864;9.190;2022-11-11T08:09:29;8.27;;;8.27;;
11510;SDS011;5812;48.864;9.190;2022-11-11T08:11:55;7.73;;;7.73;;
11510;SDS011;5812;48.864;9.190;2022-11-11T08:14:39;8.00;;;8.00;;
11510;SDS011;5812;48.864;9.190;2022-11-11T08:17:05;8.90;;;8.90;;
11510;SDS011;5812;48.864;9.190;2022-11-11T08:19:30;7.83;;;7.83;;
11510;SDS011;5812;48.864;9.190;2022-11-11T08:21:56;8.67;;;8.67;;
11510;SDS011;5812;48.864;9.190;2022-11-11T08:24:21;8.87;;;8.87;;
11510;SDS011;5812;48.864;9.190;2022-11-11T08:26:47;8.57;;;8.57;;
11510;SDS011;5812;48.864;9.190;2022-11-11T08:29:14;8.53;;;8.53;;
11510;SDS011;5812;48.864;9.190;2022-11-11T08:31:39;7.67;;;7.67;;
11510;SDS011;5812;48.864;9.190;2022-11-11T08:34:05;8.17;;;8.17;;
11510;SDS011;5812;48.864;9.190;2022-11-11T08:36:31;8.30;;;8.30;;
11510;SDS011;5812;48.864;9.190;2022-11-11T08:38:57;8.97;;;8.97;;
11510;SDS011;5812;48.864;9.190;2022-11-11T08:41:22;8.87;;;8.87;;
11510;SDS011;5812;48.864;9.190;2022-11-11T08:43:52;8.03;;;8.03;;
11510;SDS011;5812;48.864;9.190;2022-11-11T08:46:19;8.93;;;8.93;;
11510;SDS011;5812;48.864;9.190;2022-11-11T08:48:44;8.30;;;8.30;;
11510;SDS011;5812;48.864;9.190;2022-11-11T08:51:11;8.90;;;8.90;;
11510;SDS011;5812;48.864;9.190;2022-11-11T08:53:37;8.70;;;8.70;;
11510;SDS011;5812;48.864;9.190;2022-11-11T08:56:03;8.03;;;8.03;;
11510;SDS011;5812;48.864;9.190;2022-11-11T08:58:29;8.63;;;8.63;;
11510;SDS011;5812;48.864;9.190;2022-11-11T09:00:55;7.93;;;7.93;;
11510;SDS011;5812;48.864;9.190;2022-11-11T09:03:20;8.30;;;8.30;;
11510;SDS011;5812;48.864;9.190;2022-11-11T09:05:46;8.00;;;8.00;;
11510;SDS011;5812;48.864;9.190;2022-11-11T09:08:12;8.47;;;8.47;;
11510;SDS011;5812;48.864;9.190;2022-11-11T09:10:37;8.07;;;8.07;;
11510;SDS011;5812;48.864;9.190;2022-11-11T09:13:03;7.43;;;7.43;;
11510;SDS011;5812;48.864;9.190;2022-11-11T09:15:29;9.07;;;9.07;;
11510;SDS011;5812;48.864;9.190;2022-11-11T09:17:55;7.90;;;7.90;;
11510;SDS011;5812;48.864;9.190;2022-11-11T09:20:22;7.97;;;7.97;;
11510;SDS011;5812;48.864;9.190;2022-11-11T09:22:48;7.60;;;7.60;;
11510;SDS011;5812;48.864;9.190;2022-11-11T09:25:15;7.30;;;7.30;;
11510;SDS011;5812;48.864;9.190;2022-11-11T09:27:41;6.60;;;6.60;;
11510;SDS011;5812;48.864;9.190;2022-11-11T09:30:08;6.57;;;6.57;;
11510;SDS011;5812;48.864;9.190;2022-11-11T09:32:35;4.57;;;4.57;;
11510;SDS011;5812;48.864;9.190;2022-11-11T09:35:01;4.80;;;4.80;;
11510;SDS011;5812;48.864;9.190;2022-11-11T09:37:27;5.07;;;5.07;;
11510;SDS011;5812;48.864;9.190;2022-11-11T09:39:53;3.87;;;3.87;;
11510;SDS011;5812;48.864;9.190;2022-11-11T09:45:08;3.83;;;3.83;;
11510;SDS011;5812;48.864;9.190;2022-11-11T09:50:23;3.70;;;3.70;;
11510;SDS011;5812;48.864;9.190;2022-11-11T09:52:56;4.43;;;4.43;;
11510;SDS011;5812;48.864;9.190;2022-11-11T09:55:29;3.40;;;3.40;;
11510;SDS011;5812;48.864;9.190;2022-11-11T09:58:02;3.07;;;3.07;;
11510;SDS011;5812;48.864;9.190;2022-11-11T10:00:36;3.33;;;3.33;;
11510;SDS011;5812;48.864;9.190;2022-11-11T10:08:14;3.07;;;3.07;;
11510;SDS011;5812;48.864;9.190;2022-11-11T10:10:45;2.70;;;2.70;;
11510;SDS011;5812;48.864;9.190;2022-11-11T10:13:13;3.93;;;3.93;;
11510;SDS011;5812;48.864;9.190;2022-11-11T10:15:47;3.40;;;3.40;;
11510;SDS011;5812;48.864;9.190;2022-11-11T10:21:04;3.50;;;3.50;;
11510;SDS011;5812;48.864;9.190;2022-11-11T10:23:38;2.93;;;2.93;;
11510;SDS011;5812;48.864;9.190;2022-11-11T10:26:11;3.10;;;3.10;;
11510;SDS011;5812;48.864;9.190;2022-11-11T10:28:44;3.13;;;3.13;;
11510;SDS011;5812;48.864;9.190;2022-11-11T10:31:17;3.53;;;3.53;;
11510;SDS011;5812;48.864;9.190;2022-11-11T10:33:50;3.10;;;3.10;;
11510;SDS011;5812;48.864;9.190;2022-11-11T10:36:17;3.43;;;3.43;;
11510;SDS011;5812;48.864;9.190;2022-11-11T10:41:18;3.00;;;3.00;;
11510;SDS011;5812;48.864;9.190;2022-11-11T10:43:51;2.73;;;2.73;;
11510;SDS011;5812;48.864;9.190;2022-11-11T10:46:24;3.47;;;3.47;;
11510;SDS011;5812;48.864;9.190;2022-11-11T10:48:55;2.83;;;2.83;;
11510;SDS011;5812;48.864;9.190;2022-11-11T10:51:34;3.07;;;3.07;;
11510;SDS011;5812;48.864;9.190;2022-11-11T10:54:10;2.67;;;2.67;;
11510;SDS011;5812;48.864;9.190;2022-11-11T10:57:00;2.60;;;2.60;;
11510;SDS011;5812;48.864;9.190;2022-11-11T10:59:38;3.10;;;3.10;;
11510;SDS011;5812;48.864;9.190;2022-11-11T11:02:13;2.83;;;2.83;;
11510;SDS011;5812;48.864;9.190;2022-11-11T11:04:45;2.45;;;2.45;;
11510;SDS011;5812;48.864;9.190;2022-11-11T11:07:33;2.28;;;2.28;;
11510;SDS011;5812;48.864;9.190;2022-11-11T11:10:05;2.83;;;2.83;;
11510;SDS011;5812;48.864;9.190;2022-11-11T11:12:42;3.10;;;3.10;;
11510;SDS011;5812;48.864;9.190;2022-11-11T11:15:23;2.70;;;2.70;;
11510;SDS011;5812;48.864;9.190;2022-11-11T11:18:03;2.95;;;2.95;;
11510;SDS011;5812;48.864;9.190;2022-11-11T11:20:35;3.10;;;3.10;;
11510;SDS011;5812;48.864;9.190;2022-11-11T11:23:01;2.77;;;2.77;;
11510;SDS011;5812;48.864;9.190;2022-11-11T11:25:28;2.75;;;2.75;;
11510;SDS011;5812;48.864;9.190;2022-11-11T11:28:07;2.70;;;2.70;;
11510;SDS011;5812;48.864;9.190;2022-11-11T11:30:34;3.10;;;3.10;;
11510;SDS011;5812;48.864;9.190;2022-11-11T11:33:01;2.90;;;2.90;;
11510;SDS011;5812;48.864;9.190;2022-11-11T11:35:31;3.20;;;3.20;;
11510;SDS011;5812;48.864;9.190;2022-11-11T11:38:01;3.30;;;3.30;;
11510;SDS011;5812;48.864;9.190;2022-11-11T11:40:43;3.03;;;3.03;;
11510;SDS011;5812;48.864;9.190;2022-11-11T11:43:23;3.40;;;3.40;;
11510;SDS011;5812;48.864;9.190;2022-11-11T11:45:55;3.63;;;3.63;;
11510;SDS011;5812;48.864;9.190;2022-11-11T11:51:39;3.22;;;3.22;;
11510;SDS011;5812;48.864;9.190;2022-11-11T11:56:51;3.22;;;3.22;;
11510;SDS011;5812;48.864;9.190;2022-11-11T12:11:08;2.28;;;2.28;;
11510;SDS011;5812;48.864;9.190;2022-11-11T12:13:48;2.30;;;2.30;;
11510;SDS011;5812;48.864;9.190;2022-11-11T12:16:30;2.40;;;2.40;;
11510;SDS011;5812;48.864;9.190;2022-11-11T12:19:10;2.28;;;2.28;;
11510;SDS011;5812;48.864;9.190;2022-11-11T12:22:23;2.38;;;2.38;;
11510;SDS011;5812;48.864;9.190;2022-11-11T12:28:10;2.63;;;2.63;;
11510;SDS011;5812;48.864;9.190;2022-11-11T12:30:56;2.90;;;2.90;;
11510;SDS011;5812;48.864;9.190;2022-11-11T12:33:37;2.80;;;2.80;;
11510;SDS011;5812;48.864;9.190;2022-11-11T12:36:21;2.92;;;2.92;;
11510;SDS011;5812;48.864;9.190;2022-11-11T12:39:48;2.88;;;2.88;;
11510;SDS011;5812;48.864;9.190;2022-11-11T12:41:58;2.65;;;2.65;;
11510;SDS011;5812;48.864;9.190;2022-11-11T12:44:45;2.75;;;2.75;;
11510;SDS011;5812;48.864;9.190;2022-11-11T12:53:02;2.40;;;2.40;;
11510;SDS011;5812;48.864;9.190;2022-11-11T12:55:34;2.17;;;2.17;;
11510;SDS011;5812;48.864;9.190;2022-11-11T13:01:07;2.35;;;2.35;;
11510;SDS011;5812;48.864;9.190;2022-11-11T13:08:56;2.55;;;2.55;;
11510;SDS011;5812;48.864;9.190;2022-11-11T13:16:35;2.90;;;2.90;;
11510;SDS011;5812;48.864;9.190;2022-11-11T13:19:02;3.20;;;3.20;;
11510;SDS011;5812;48.864;9.190;2022-11-11T13:21:30;3.67;;;3.67;;
11510;SDS011;5812;48.864;9.190;2022-11-11T13:24:07;2.90;;;2.90;;
11510;SDS011;5812;48.864;9.190;2022-11-11T13:26:38;3.07;;;3.07;;
11510;SDS011;5812;48.864;9.190;2022-11-11T13:29:45;3.03;;;3.03;;
11510;SDS011;5812;48.864;9.190;2022-11-11T13:32:28;3.10;;;3.10;;
11510;SDS011;5812;48.864;9.190;2022-11-11T13:34:58;2.25;;;2.25;;
11510;SDS011;5812;48.864;9.190;2022-11-11T13:37:25;2.87;;;2.87;;
11510;SDS011;5812;48.864;9.190;2022-11-11T13:39:54;2.40;;;2.40;;
11510;SDS011;5812;48.864;9.190;2022-11-11T13:42:39;1.93;;;1.93;;
11510;SDS011;5812;48.864;9.190;2022-11-11T13:45:20;2.10;;;2.10;;
11510;SDS011;5812;48.864;9.190;2022-11-11T13:47:51;1.77;;;1.77;;
11510;SDS011;5812;48.864;9.190;2022-11-11T13:50:28;1.57;;;1.57;;
11510;SDS011;5812;48.864;9.190;2022-11-11T13:53:03;2.20;;;2.20;;
11510;SDS011;5812;48.864;9.190;2022-11-11T13:55:32;2.13;;;2.13;;
11510;SDS011;5812;48.864;9.190;2022-11-11T13:58:01;1.50;;;1.50;;
11510;SDS011;5812;48.864;9.190;2022-11-11T14:00:30;1.60;;;1.60;;
11510;SDS011;5812;48.864;9.190;2022-11-11T14:11:45;1.33;;;1.33;;
11510;SDS011;5812;48.864;9.190;2022-11-11T14:21:46;1.27;;;1.27;;
11510;SDS011;5812;48.864;9.190;2022-11-11T14:27:03;3.07;;;3.07;;
11510;SDS011;5812;48.864;9.190;2022-11-11T14:29:32;2.40;;;2.40;;
11510;SDS011;5812;48.864;9.190;2022-11-11T14:34:51;1.90;;;1.90;;
11510;SDS011;5812;48.864;9.190;2022-11-11T14:37:42;1.60;;;1.60;;
11510;SDS011;5812;48.864;9.190;2022-11-11T14:40:27;1.67;;;1.67;;
11510;SDS011;5812;48.864;9.190;2022-11-11T14:42:55;1.50;;;1.50;;
11510;SDS011;5812;48.864;9.190;2022-11-11T14:47:56;1.53;;;1.53;;
11510;SDS011;5812;48.864;9.190;2022-11-11T14:55:42;1.63;;;1.63;;
11510;SDS011;5812;48.864;9.190;2022-11-11T14:58:17;1.57;;;1.57;;
11510;SDS011;5812;48.864;9.190;2022-11-11T15:00:50;1.83;;;1.83;;
11510;SDS011;5812;48.864;9.190;2022-11-11T15:03:29;1.70;;;1.70;;
11510;SDS011;5812;48.864;9.190;2022-11-11T15:11:24;1.83;;;1.83;;
11510;SDS011;5812;48.864;9.190;2022-11-11T15:14:21;1.80;;;1.80;;
11510;SDS011;5812;48.864;9.190;2022-11-11T15:31:03;2.60;;;2.60;;
11510;SDS011;5812;48.864;9.190;2022-11-11T15:33:47;2.70;;;2.70;;
11510;SDS011;5812;48.864;9.190;2022-11-11T15:39:18;2.50;;;2.50;;
11510;SDS011;5812;48.864;9.190;2022-11-11T15:41:51;2.80;;;2.80;;
11510;SDS011;5812;48.864;9.190;2022-11-11T15:44:19;3.20;;;3.20;;
11510;SDS011;5812;48.864;9.190;2022-11-11T15:46:48;3.20;;;3.20;;
11510;SDS011;5812;48.864;9.190;2022-11-11T15:49:35;4.00;;;4.00;;
11510;SDS011;5812;48.864;9.190;2022-11-11T15:52:32;3.60;;;3.60;;
11510;SDS011;5812;48.864;9.190;2022-11-11T15:55:00;4.03;;;4.03;;
11510;SDS011;5812;48.864;9.190;2022-11-11T15:57:34;3.60;;;3.60;;
11510;SDS011;5812;48.864;9.190;2022-11-11T16:00:00;4.30;;;4.30;;
11510;SDS011;5812;48.864;9.190;2022-11-11T16:02:32;3.93;;;3.93;;
11510;SDS011;5812;48.864;9.190;2022-11-11T16:05:02;4.27;;;4.27;;
11510;SDS011;5812;48.864;9.190;2022-11-11T16:07:36;4.00;;;4.00;;
11510;SDS011;5812;48.864;9.190;2022-11-11T16:10:07;3.57;;;3.57;;
11510;SDS011;5812;48.864;9.190;2022-11-11T16:12:52;3.70;;;3.70;;
11510;SDS011;5812;48.864;9.190;2022-11-11T16:15:24;3.80;;;3.80;;
11510;SDS011;5812;48.864;9.190;2022-11-11T16:18:14;4.33;;;4.33;;
11510;SDS011;5812;48.864;9.190;2022-11-11T16:21:09;4.50;;;4.50;;
11510;SDS011;5812;48.864;9.190;2022-11-11T16:23:38;4.40;;;4.40;;
11510;SDS011;5812;48.864;9.190;2022-11-11T16:26:05;4.73;;;4.73;;
11510;SDS011;5812;48.864;9.190;2022-11-11T16:28:43;5.27;;;5.27;;
11510;SDS011;5812;48.864;9.190;2022-11-11T16:33:58;8.53;;;8.53;;
11510;SDS011;5812;48.864;9.190;2022-11-11T16:36:24;6.50;;;6.50;;
11510;SDS011;5812;48.864;9.190;2022-11-11T16:38:50;6.07;;;6.07;;
11510;SDS011;5812;48.864;9.190;2022-11-11T16:41:23;5.57;;;5.57;;
11510;SDS011;5812;48.864;9.190;2022-11-11T16:43:50;6.17;;;6.17;;
11510;SDS011;5812;48.864;9.190;2022-11-11T16:52:18;8.50;;;8.50;;
11510;SDS011;5812;48.864;9.190;2022-11-11T16:54:49;7.83;;;7.83;;
11510;SDS011;5812;48.864;9.190;2022-11-11T16:57:18;7.47;;;7.47;;
11510;SDS011;5812;48.864;9.190;2022-11-11T16:59:49;8.03;;;8.03;;
11510;SDS011;5812;48.864;9.190;2022-11-11T17:02:18;10.13;;;10.13;;
11510;SDS011;5812;48.864;9.190;2022-11-11T17:04:50;8.70;;;8.70;;
11510;SDS011;5812;48.864;9.190;2022-11-11T17:07:27;7.87;;;7.87;;
11510;SDS011;5812;48.864;9.190;2022-11-11T17:12:33;9.03;;;9.03;;
11510;SDS011;5812;48.864;9.190;2022-11-11T17:15:01;9.43;;;9.43;;
11510;SDS011;5812;48.864;9.190;2022-11-11T17:17:45;14.47;;;14.37;;
11510;SDS011;5812;48.864;9.190;2022-11-11T17:20:12;12.60;;;12.50;;
11510;SDS011;5812;48.864;9.190;2022-11-11T17:22:49;14.73;;;14.63;;
11510;SDS011;5812;48.864;9.190;2022-11-11T17:25:16;12.80;;;12.70;;